createdAt,value
2023-04-12T00:02:18.481Z,5.00
2023-04-12T00:07:21.316Z,5.40
2023-04-12T00:12:24.069Z,6.00
2023-04-12T00:17:28.279Z,5.40
2023-04-12T00:22:31.268Z,4.20
2023-04-12T00:27:34.057Z,5.00
2023-04-12T00:32:38.462Z,5.00
2023-04-12T00:37:41.347Z,6.00
2023-04-12T00:42:44.740Z,5.00
2023-04-12T00:47:48.906Z,4.40
2023-04-12T00:52:51.934Z,4.00
2023-04-12T00:57:54.929Z,4.00
2023-04-12T01:03:02.518Z,4.80
2023-04-12T01:08:12.031Z,5.00
2023-04-12T01:13:21.709Z,4.00
2023-04-12T01:18:28.022Z,4.80
2023-04-12T01:23:43.366Z,4.60
2023-04-12T01:28:47.605Z,4.00
2023-04-12T01:33:50.335Z,5.00
2023-04-12T01:38:53.705Z,4.00
2023-04-12T01:43:58.133Z,5.00
2023-04-12T01:49:01.218Z,4.40
2023-04-12T01:54:11.241Z,5.00
2023-04-12T01:59:16.443Z,3.60
2023-04-12T02:04:19.181Z,4.00
2023-04-12T02:09:22.601Z,4.00
2023-04-12T02:14:27.029Z,4.00
2023-04-12T02:19:30.102Z,2.00
2023-04-12T02:24:33.607Z,4.20
2023-04-12T02:29:37.753Z,4.00
2023-04-12T02:34:40.596Z,2.80
2023-04-12T02:39:51.979Z,4.00
2023-04-12T02:44:57.968Z,3.80
2023-04-12T02:50:00.887Z,2.00
2023-04-12T02:55:05.836Z,3.20
2023-04-12T03:00:13.279Z,4.00
2023-04-12T03:05:19.420Z,4.00
2023-04-12T03:10:22.376Z,2.00
2023-04-12T03:15:34.098Z,2.00
2023-04-12T03:20:39.206Z,2.00
2023-04-12T03:25:45.531Z,3.60
2023-04-12T03:31:10.557Z,4.00
2023-04-12T03:36:18.995Z,2.00
2023-04-12T03:41:27.647Z,2.40
2023-04-12T03:46:32.424Z,2.00
2023-04-12T03:51:42.655Z,4.20
2023-04-12T03:56:46.497Z,3.60
2023-04-12T04:01:58.938Z,3.20
2023-04-12T04:07:03.955Z,2.00
2023-04-12T04:12:15.024Z,4.00
2023-04-12T04:17:23.475Z,1.80
2023-04-12T04:22:26.723Z,3.20
2023-04-12T04:27:30.669Z,2.80
2023-04-12T04:32:35.552Z,1.40
2023-04-12T04:37:38.611Z,2.00
2023-04-12T04:42:42.899Z,2.00
2023-04-12T04:47:47.664Z,2.00
2023-04-12T04:52:50.893Z,1.20
2023-04-12T04:57:54.420Z,1.20
2023-04-12T05:02:58.878Z,2.00
2023-04-12T05:08:04.441Z,1.80
2023-04-12T05:13:10.681Z,2.00
2023-04-12T05:18:16.017Z,1.00
2023-04-12T05:23:18.823Z,1.00
2023-04-12T05:28:21.856Z,1.20
2023-04-12T05:33:26.579Z,2.00
2023-04-12T05:38:29.502Z,1.40
2023-04-12T05:43:37.588Z,1.40
2023-04-12T05:48:43.006Z,1.20
2023-04-12T05:53:45.803Z,2.00
2023-04-12T05:58:50.072Z,2.00
2023-04-12T06:03:54.925Z,1.00
2023-04-12T06:09:00.562Z,2.00
2023-04-12T06:14:04.517Z,1.80
2023-04-12T06:19:09.090Z,1.40
2023-04-12T06:24:11.881Z,1.00
2023-04-12T06:29:14.853Z,1.00
2023-04-12T06:34:19.539Z,2.00
2023-04-12T06:39:22.491Z,2.00
2023-04-12T06:44:26.285Z,1.00
2023-04-12T06:49:30.530Z,1.00
2023-04-12T06:54:33.269Z,1.00
2023-04-12T06:59:36.070Z,2.00
2023-04-12T07:04:40.464Z,1.00
2023-04-12T07:09:43.296Z,1.00
2023-04-12T07:14:46.034Z,1.60
2023-04-12T07:19:50.364Z,1.60
2023-04-12T07:24:53.150Z,1.00
2023-04-12T07:29:55.975Z,1.00
2023-04-12T07:35:00.428Z,1.00
2023-04-12T07:40:03.365Z,1.00
2023-04-12T07:45:06.975Z,1.00
2023-04-12T07:50:13.286Z,1.00
2023-04-12T07:55:16.156Z,1.00
2023-04-12T08:00:19.825Z,1.00
2023-04-12T08:05:24.039Z,0.00
2023-04-12T08:10:26.823Z,1.00
2023-04-12T08:15:29.719Z,0.20
2023-04-12T08:20:34.085Z,1.00
2023-04-12T08:25:36.881Z,0.80
2023-04-12T08:30:39.710Z,0.20
2023-04-12T08:35:43.807Z,1.00
2023-04-12T08:40:47.217Z,1.00
2023-04-12T08:45:50.117Z,1.00
2023-04-12T08:50:54.337Z,0.20
2023-04-12T08:55:57.088Z,0.80
2023-04-12T09:00:59.866Z,1.00
2023-04-12T09:06:05.928Z,1.00
2023-04-12T09:11:23.078Z,1.00
2023-04-12T09:16:36.019Z,1.40
2023-04-12T09:21:52.382Z,1.00
2023-04-12T09:27:03.618Z,1.00
2023-04-12T09:32:07.124Z,1.00
2023-04-12T09:37:17.750Z,1.00
2023-04-12T09:47:38.170Z,1.00
2023-04-12T09:52:42.325Z,1.00
2023-04-12T09:57:45.685Z,1.00
2023-04-12T10:02:51.236Z,0.00
2023-04-12T10:07:56.603Z,0.00
2023-04-12T10:13:00.262Z,0.60
2023-04-12T10:18:03.079Z,0.00
2023-04-12T10:23:07.351Z,0.00
2023-04-12T10:28:17.268Z,0.20
2023-04-12T10:33:20.779Z,0.60
2023-04-12T10:38:27.153Z,0.00
2023-04-12T10:43:30.134Z,1.00
2023-04-12T10:48:33.617Z,0.00
2023-04-12T10:53:37.734Z,1.00
2023-04-12T10:58:58.877Z,0.00
2023-04-12T11:04:09.311Z,1.00
2023-04-12T11:09:21.863Z,0.00
2023-04-12T11:14:28.638Z,8.80
2023-04-12T11:19:31.898Z,28.75
2023-04-12T11:24:38.551Z,42.75
2023-04-12T11:29:41.386Z,62.25
2023-04-12T11:34:46.883Z,74.75
2023-04-12T11:39:52.682Z,104.25
2023-04-12T11:45:00.289Z,140.50
2023-04-12T11:50:05.110Z,145.00
2023-04-12T11:55:11.380Z,167.00
2023-04-12T12:00:15.338Z,163.75
2023-04-12T12:05:18.372Z,164.75
2023-04-12T12:10:37.781Z,162.75
2023-04-12T12:15:46.114Z,174.40
2023-04-12T12:20:49.884Z,171.80
2023-04-12T12:26:02.970Z,150.67
2023-04-12T12:31:13.282Z,133.50
2023-04-12T12:36:19.651Z,132.25
2023-04-12T12:41:24.559Z,120.25
2023-04-12T12:46:37.386Z,116.00
2023-04-12T12:51:51.185Z,109.25
2023-04-12T12:56:55.468Z,101.50
2023-04-12T13:01:58.368Z,97.00
2023-04-12T13:07:01.294Z,97.00
2023-04-12T13:12:07.632Z,96.33
2023-04-12T13:17:11.862Z,91.00
2023-04-12T13:22:14.768Z,88.33
2023-04-12T13:27:18.969Z,88.00
2023-04-12T13:32:21.973Z,88.67
2023-04-12T13:37:25.187Z,84.67
2023-04-12T13:42:29.711Z,81.33
2023-04-12T13:47:33.746Z,84.00
2023-04-12T13:52:36.864Z,84.67
2023-04-12T13:57:41.113Z,78.67
2023-04-12T14:02:44.193Z,77.25
2023-04-12T14:07:47.966Z,80.25
2023-04-12T14:12:52.169Z,77.00
2023-04-12T14:17:56.121Z,77.00
2023-04-12T14:23:01.218Z,76.00
2023-04-12T14:28:05.657Z,78.50
2023-04-12T14:33:08.725Z,76.25
2023-04-12T14:38:12.652Z,74.25
2023-04-12T14:43:17.123Z,70.75
2023-04-12T14:48:21.092Z,71.00
2023-04-12T14:53:23.923Z,74.25
2023-04-12T14:58:29.444Z,70.75
2023-04-12T15:03:34.050Z,71.50
2023-04-12T15:08:41.635Z,69.25
2023-04-12T15:13:45.802Z,70.75
2023-04-12T15:18:50.248Z,69.75
2023-04-12T15:23:53.124Z,69.50
2023-04-12T15:28:57.240Z,70.75
2023-04-12T15:34:00.457Z,71.00
2023-04-12T15:39:04.652Z,66.50
2023-04-12T15:44:09.849Z,66.00
2023-04-12T15:49:12.764Z,66.75
2023-04-12T15:54:16.142Z,66.00
2023-04-12T15:59:20.320Z,69.75
2023-04-12T16:04:23.193Z,67.75
2023-04-12T16:09:26.424Z,66.00
2023-04-12T16:14:30.814Z,66.00
2023-04-12T16:19:33.563Z,64.50
2023-04-12T16:24:37.366Z,63.50
2023-04-12T16:29:41.573Z,60.00
2023-04-12T16:34:44.572Z,65.25
2023-04-12T16:39:47.613Z,64.25
2023-04-12T16:44:52.050Z,62.75
2023-04-12T16:49:54.888Z,61.75
2023-04-12T16:54:58.386Z,61.50
2023-04-12T17:00:04.349Z,59.25
2023-04-12T17:05:08.417Z,57.25
2023-04-12T17:10:11.360Z,59.00
2023-04-12T17:15:16.385Z,54.50
2023-04-12T17:20:19.880Z,56.50
2023-04-12T17:25:22.944Z,51.50
2023-04-12T17:30:30.929Z,50.00
2023-04-12T17:35:33.963Z,49.00
2023-04-12T17:40:37.586Z,49.00
2023-04-12T17:45:41.911Z,51.00
2023-04-12T17:50:45.723Z,48.25
2023-04-12T17:55:50.594Z,47.75
2023-04-12T18:00:54.987Z,50.00
2023-04-12T18:05:59.296Z,49.25
2023-04-12T18:11:03.965Z,47.00
2023-04-12T18:16:08.422Z,49.00
2023-04-12T18:21:11.386Z,48.00
2023-04-12T18:26:14.240Z,48.25
2023-04-12T18:31:18.921Z,47.50
2023-04-12T18:36:21.924Z,48.00
2023-04-12T18:41:24.983Z,47.00
2023-04-12T18:46:29.632Z,47.00
2023-04-12T18:51:33.812Z,47.00
2023-04-12T18:56:36.641Z,47.00
2023-04-12T19:01:41.045Z,45.00
2023-04-12T19:06:45.101Z,45.00
2023-04-12T19:11:47.999Z,45.00
2023-04-12T19:16:52.992Z,44.25
2023-04-12T19:21:55.901Z,43.00
2023-04-12T19:26:58.703Z,43.25
2023-04-12T19:32:05.366Z,44.00
2023-04-12T19:37:08.278Z,44.75
2023-04-12T19:42:11.851Z,42.00
2023-04-12T19:47:16.085Z,44.00
2023-04-12T19:52:21.785Z,42.00
2023-04-12T19:57:25.060Z,44.00
2023-04-12T20:02:29.421Z,42.25
2023-04-12T20:07:32.331Z,42.00
2023-04-12T20:12:35.266Z,42.00
2023-04-12T20:17:41.167Z,41.75
2023-04-12T20:22:45.828Z,42.00
2023-04-12T20:27:52.430Z,41.75
2023-04-12T20:32:57.207Z,40.00
2023-04-12T20:38:00.290Z,41.00
2023-04-12T20:43:03.446Z,42.00
2023-04-12T20:48:07.685Z,39.50
2023-04-12T20:53:15.033Z,39.75
2023-04-12T20:58:19.063Z,38.00
2023-04-12T21:03:23.265Z,40.00
2023-04-12T21:08:26.122Z,38.00
2023-04-12T21:13:28.973Z,39.00
2023-04-12T21:18:34.208Z,37.00
2023-04-12T21:23:37.543Z,38.00
2023-04-12T21:28:40.944Z,38.00
2023-04-12T21:33:45.058Z,37.00
2023-04-12T21:38:49.100Z,36.75
2023-04-12T21:43:52.122Z,36.00
2023-04-12T21:48:56.406Z,37.00
2023-04-12T21:53:59.293Z,36.00
2023-04-12T21:59:02.485Z,36.25
2023-04-12T22:04:07.776Z,36.25
2023-04-12T22:09:10.605Z,36.00
2023-04-12T22:14:13.755Z,36.00
2023-04-12T22:19:18.784Z,36.00
2023-04-12T22:24:21.538Z,33.00
2023-04-12T22:29:25.368Z,33.67
2023-04-12T22:34:29.578Z,33.33
2023-04-12T22:39:32.522Z,32.00
2023-04-12T22:44:38.211Z,33.67
2023-04-12T22:49:50.185Z,31.33
2023-04-12T22:54:53.049Z,32.00
2023-04-12T22:59:55.814Z,30.00
2023-04-12T23:05:00.026Z,30.00
2023-04-12T23:10:03.108Z,29.33
2023-04-12T23:15:06.668Z,29.67
2023-04-12T23:20:13.302Z,30.33
2023-04-12T23:25:16.419Z,29.00
2023-04-12T23:30:20.151Z,29.67
2023-04-12T23:35:24.306Z,31.00
2023-04-12T23:40:27.140Z,31.00
2023-04-12T23:45:29.896Z,31.00
2023-04-12T23:50:34.005Z,29.00
2023-04-12T23:55:36.885Z,31.00
